sensor_id;sensor_type;location;lat;lon;timestamp;temperature;humidity
39453;DHT22;25154;-33.684;151.102;2023-08-21T00:00:08;15.80;99.90
39453;DHT22;25154;-33.684;151.102;2023-08-21T00:05:10;16.00;99.90
39453;DHT22;25154;-33.684;151.102;2023-08-21T00:10:13;16.20;99.90
39453;DHT22;25154;-33.684;151.102;2023-08-21T00:15:15;16.50;99.90
39453;DHT22;25154;-33.684;151.102;2023-08-21T00:20:18;16.60;99.90
39453;DHT22;25154;-33.684;151.102;2023-08-21T00:25:22;16.90;99.90
39453;DHT22;25154;-33.684;151.102;2023-08-21T00:30:24;17.20;99.90
39453;DHT22;25154;-33.684;151.102;2023-08-21T00:35:26;17.20;99.90
39453;DHT22;25154;-33.684;151.102;2023-08-21T00:40:30;17.40;99.90
39453;DHT22;25154;-33.684;151.102;2023-08-21T00:45:32;17.40;99.90
39453;DHT22;25154;-33.684;151.102;2023-08-21T00:50:35;17.50;99.90
39453;DHT22;25154;-33.684;151.102;2023-08-21T00:55:38;17.80;99.90
39453;DHT22;25154;-33.684;151.102;2023-08-21T01:00:41;17.70;99.90
39453;DHT22;25154;-33.684;151.102;2023-08-21T01:05:45;18.10;99.90
39453;DHT22;25154;-33.684;151.102;2023-08-21T01:10:59;18.80;99.90
39453;DHT22;25154;-33.684;151.102;2023-08-21T01:16:06;18.50;99.90
39453;DHT22;25154;-33.684;151.102;2023-08-21T01:21:09;18.50;98.70
39453;DHT22;25154;-33.684;151.102;2023-08-21T01:26:13;18.70;98.80
39453;DHT22;25154;-33.684;151.102;2023-08-21T01:31:29;18.50;98.60
39453;DHT22;25154;-33.684;151.102;2023-08-21T01:36:32;18.50;97.40
39453;DHT22;25154;-33.684;151.102;2023-08-21T01:41:35;18.50;95.90
39453;DHT22;25154;-33.684;151.102;2023-08-21T01:46:38;18.60;96.90
39453;DHT22;25154;-33.684;151.102;2023-08-21T01:51:40;19.00;94.90
39453;DHT22;25154;-33.684;151.102;2023-08-21T01:56:42;19.20;95.20
39453;DHT22;25154;-33.684;151.102;2023-08-21T02:01:45;19.70;95.10
39453;DHT22;25154;-33.684;151.102;2023-08-21T02:06:47;20.00;94.20
39453;DHT22;25154;-33.684;151.102;2023-08-21T02:11:50;20.20;95.40
39453;DHT22;25154;-33.684;151.102;2023-08-21T02:16:53;20.00;93.40
39453;DHT22;25154;-33.684;151.102;2023-08-21T02:21:55;19.90;93.30
39453;DHT22;25154;-33.684;151.102;2023-08-21T02:26:58;20.30;92.80
39453;DHT22;25154;-33.684;151.102;2023-08-21T02:32:00;21.40;92.00
39453;DHT22;25154;-33.684;151.102;2023-08-21T02:37:02;21.40;92.20
39453;DHT22;25154;-33.684;151.102;2023-08-21T02:42:06;20.70;92.10
39453;DHT22;25154;-33.684;151.102;2023-08-21T02:47:08;20.80;91.50
39453;DHT22;25154;-33.684;151.102;2023-08-21T02:52:11;19.40;94.40
39453;DHT22;25154;-33.684;151.102;2023-08-21T02:57:13;21.30;93.50
39453;DHT22;25154;-33.684;151.102;2023-08-21T03:02:15;21.50;91.00
39453;DHT22;25154;-33.684;151.102;2023-08-21T03:07:18;21.90;90.70
39453;DHT22;25154;-33.684;151.102;2023-08-21T03:12:22;21.10;91.60
39453;DHT22;25154;-33.684;151.102;2023-08-21T03:17:25;22.80;91.70
39453;DHT22;25154;-33.684;151.102;2023-08-21T03:22:28;20.50;91.60
39453;DHT22;25154;-33.684;151.102;2023-08-21T03:27:30;20.20;89.30
39453;DHT22;25154;-33.684;151.102;2023-08-21T03:32:34;21.70;91.00
39453;DHT22;25154;-33.684;151.102;2023-08-21T03:37:37;22.90;86.90
39453;DHT22;25154;-33.684;151.102;2023-08-21T03:42:40;22.60;88.20
39453;DHT22;25154;-33.684;151.102;2023-08-21T03:47:44;22.50;82.60
39453;DHT22;25154;-33.684;151.102;2023-08-21T03:52:47;22.70;83.80
39453;DHT22;25154;-33.684;151.102;2023-08-21T03:57:50;25.20;75.10
39453;DHT22;25154;-33.684;151.102;2023-08-21T04:02:52;25.80;72.00
39453;DHT22;25154;-33.684;151.102;2023-08-21T04:07:55;25.80;72.50
39453;DHT22;25154;-33.684;151.102;2023-08-21T04:12:58;24.20;77.30
39453;DHT22;25154;-33.684;151.102;2023-08-21T04:18:02;23.50;76.00
39453;DHT22;25154;-33.684;151.102;2023-08-21T04:23:05;23.60;78.50
39453;DHT22;25154;-33.684;151.102;2023-08-21T04:28:07;23.80;75.50
39453;DHT22;25154;-33.684;151.102;2023-08-21T04:33:10;26.40;72.70
39453;DHT22;25154;-33.684;151.102;2023-08-21T04:38:12;29.60;63.60
39453;DHT22;25154;-33.684;151.102;2023-08-21T04:43:15;31.70;61.90
39453;DHT22;25154;-33.684;151.102;2023-08-21T04:48:18;31.50;56.70
39453;DHT22;25154;-33.684;151.102;2023-08-21T04:53:21;33.20;58.20
39453;DHT22;25154;-33.684;151.102;2023-08-21T04:58:24;32.50;56.90
39453;DHT22;25154;-33.684;151.102;2023-08-21T05:03:27;33.10;53.40
39453;DHT22;25154;-33.684;151.102;2023-08-21T05:08:30;32.80;54.20
39453;DHT22;25154;-33.684;151.102;2023-08-21T05:13:33;32.40;54.00
39453;DHT22;25154;-33.684;151.102;2023-08-21T05:18:36;33.90;52.80
39453;DHT22;25154;-33.684;151.102;2023-08-21T05:23:39;33.40;52.50
39453;DHT22;25154;-33.684;151.102;2023-08-21T05:28:41;33.20;51.40
39453;DHT22;25154;-33.684;151.102;2023-08-21T05:33:44;32.80;52.80
39453;DHT22;25154;-33.684;151.102;2023-08-21T05:38:47;34.50;51.00
39453;DHT22;25154;-33.684;151.102;2023-08-21T05:43:50;33.60;52.20
39453;DHT22;25154;-33.684;151.102;2023-08-21T05:48:53;34.00;51.40
39453;DHT22;25154;-33.684;151.102;2023-08-21T05:53:55;33.90;51.40
39453;DHT22;25154;-33.684;151.102;2023-08-21T05:58:58;35.20;50.10
39453;DHT22;25154;-33.684;151.102;2023-08-21T06:04:02;35.60;50.50
39453;DHT22;25154;-33.684;151.102;2023-08-21T06:09:05;34.90;51.70
39453;DHT22;25154;-33.684;151.102;2023-08-21T06:14:09;35.10;52.20
39453;DHT22;25154;-33.684;151.102;2023-08-21T06:19:11;34.20;51.30
39453;DHT22;25154;-33.684;151.102;2023-08-21T06:24:14;32.80;52.70
39453;DHT22;25154;-33.684;151.102;2023-08-21T06:29:17;33.90;51.90
39453;DHT22;25154;-33.684;151.102;2023-08-21T06:34:22;33.20;51.70
39453;DHT22;25154;-33.684;151.102;2023-08-21T06:39:26;33.60;52.90
39453;DHT22;25154;-33.684;151.102;2023-08-21T06:44:29;32.40;53.90
39453;DHT22;25154;-33.684;151.102;2023-08-21T06:49:31;31.80;55.00
39453;DHT22;25154;-33.684;151.102;2023-08-21T06:54:34;30.30;59.80
39453;DHT22;25154;-33.684;151.102;2023-08-21T06:59:37;29.00;60.70
39453;DHT22;25154;-33.684;151.102;2023-08-21T07:04:39;25.90;66.30
39453;DHT22;25154;-33.684;151.102;2023-08-21T07:09:42;21.90;76.80
39453;DHT22;25154;-33.684;151.102;2023-08-21T07:14:44;19.50;89.40
39453;DHT22;25154;-33.684;151.102;2023-08-21T07:19:46;18.50;95.10
39453;DHT22;25154;-33.684;151.102;2023-08-21T07:24:50;17.90;99.90
39453;DHT22;25154;-33.684;151.102;2023-08-21T07:29:52;17.20;99.90
39453;DHT22;25154;-33.684;151.102;2023-08-21T07:34:55;16.80;99.90
39453;DHT22;25154;-33.684;151.102;2023-08-21T07:39:57;16.40;99.90
39453;DHT22;25154;-33.684;151.102;2023-08-21T07:45:00;16.20;99.90
39453;DHT22;25154;-33.684;151.102;2023-08-21T07:50:02;15.80;99.90
39453;DHT22;25154;-33.684;151.102;2023-08-21T07:55:05;15.50;99.90
39453;DHT22;25154;-33.684;151.102;2023-08-21T08:00:08;15.30;99.90
39453;DHT22;25154;-33.684;151.102;2023-08-21T08:05:12;15.10;99.90
39453;DHT22;25154;-33.684;151.102;2023-08-21T08:10:15;14.80;99.90
39453;DHT22;25154;-33.684;151.102;2023-08-21T08:15:18;14.70;99.90
39453;DHT22;25154;-33.684;151.102;2023-08-21T08:20:21;14.50;99.90
39453;DHT22;25154;-33.684;151.102;2023-08-21T08:25:24;14.40;99.90
39453;DHT22;25154;-33.684;151.102;2023-08-21T08:30:27;14.30;99.90
39453;DHT22;25154;-33.684;151.102;2023-08-21T08:35:29;14.20;99.90
39453;DHT22;25154;-33.684;151.102;2023-08-21T08:40:33;14.20;99.90
39453;DHT22;25154;-33.684;151.102;2023-08-21T08:45:37;14.00;99.90
39453;DHT22;25154;-33.684;151.102;2023-08-21T08:50:40;14.10;99.90
39453;DHT22;25154;-33.684;151.102;2023-08-21T08:55:42;13.90;99.90
39453;DHT22;25154;-33.684;151.102;2023-08-21T09:00:45;13.60;99.90
39453;DHT22;25154;-33.684;151.102;2023-08-21T09:05:47;13.60;99.90
39453;DHT22;25154;-33.684;151.102;2023-08-21T09:10:50;13.50;99.90
39453;DHT22;25154;-33.684;151.102;2023-08-21T09:15:55;13.50;99.90
39453;DHT22;25154;-33.684;151.102;2023-08-21T09:20:58;13.30;99.90
39453;DHT22;25154;-33.684;151.102;2023-08-21T09:26:03;13.10;99.90
39453;DHT22;25154;-33.684;151.102;2023-08-21T09:31:06;12.80;99.90
39453;DHT22;25154;-33.684;151.102;2023-08-21T09:36:10;12.60;99.90
39453;DHT22;25154;-33.684;151.102;2023-08-21T09:41:12;13.10;99.90
39453;DHT22;25154;-33.684;151.102;2023-08-21T09:46:25;13.10;99.90
39453;DHT22;25154;-33.684;151.102;2023-08-21T09:51:28;13.10;99.90
39453;DHT22;25154;-33.684;151.102;2023-08-21T09:56:31;13.10;99.90
39453;DHT22;25154;-33.684;151.102;2023-08-21T10:01:36;13.10;99.90
39453;DHT22;25154;-33.684;151.102;2023-08-21T10:06:39;13.10;99.90
39453;DHT22;25154;-33.684;151.102;2023-08-21T10:11:42;13.20;99.90
39453;DHT22;25154;-33.684;151.102;2023-08-21T10:16:45;13.00;99.90
39453;DHT22;25154;-33.684;151.102;2023-08-21T10:21:48;13.00;99.90
39453;DHT22;25154;-33.684;151.102;2023-08-21T10:26:51;13.00;99.90
39453;DHT22;25154;-33.684;151.102;2023-08-21T10:32:05;12.50;99.90
39453;DHT22;25154;-33.684;151.102;2023-08-21T10:37:09;12.30;99.90
39453;DHT22;25154;-33.684;151.102;2023-08-21T10:42:14;12.40;99.90
39453;DHT22;25154;-33.684;151.102;2023-08-21T10:47:30;12.60;99.90
39453;DHT22;25154;-33.684;151.102;2023-08-21T10:52:38;12.80;99.90
39453;DHT22;25154;-33.684;151.102;2023-08-21T10:57:43;12.30;99.90
39453;DHT22;25154;-33.684;151.102;2023-08-21T11:02:46;11.90;99.90
39453;DHT22;25154;-33.684;151.102;2023-08-21T11:07:49;11.90;99.90
39453;DHT22;25154;-33.684;151.102;2023-08-21T11:12:54;12.10;99.90
39453;DHT22;25154;-33.684;151.102;2023-08-21T11:18:02;12.10;99.90
39453;DHT22;25154;-33.684;151.102;2023-08-21T11:23:05;11.90;99.90
39453;DHT22;25154;-33.684;151.102;2023-08-21T11:28:11;11.60;99.90
39453;DHT22;25154;-33.684;151.102;2023-08-21T11:33:14;11.50;99.90
39453;DHT22;25154;-33.684;151.102;2023-08-21T11:38:18;11.50;99.90
39453;DHT22;25154;-33.684;151.102;2023-08-21T11:43:21;11.30;99.90
39453;DHT22;25154;-33.684;151.102;2023-08-21T11:48:24;11.30;99.90
39453;DHT22;25154;-33.684;151.102;2023-08-21T11:53:34;11.30;99.90
39453;DHT22;25154;-33.684;151.102;2023-08-21T11:58:40;11.30;99.90
39453;DHT22;25154;-33.684;151.102;2023-08-21T12:03:44;11.20;99.90
39453;DHT22;25154;-33.684;151.102;2023-08-21T12:08:46;10.90;99.90
39453;DHT22;25154;-33.684;151.102;2023-08-21T12:13:49;11.10;99.90
39453;DHT22;25154;-33.684;151.102;2023-08-21T12:18:53;10.90;99.90
39453;DHT22;25154;-33.684;151.102;2023-08-21T12:23:58;11.10;99.90
39453;DHT22;25154;-33.684;151.102;2023-08-21T12:29:01;11.10;99.90
39453;DHT22;25154;-33.684;151.102;2023-08-21T12:34:04;11.00;99.90
39453;DHT22;25154;-33.684;151.102;2023-08-21T12:39:07;11.00;99.90
39453;DHT22;25154;-33.684;151.102;2023-08-21T12:44:10;10.60;99.90
39453;DHT22;25154;-33.684;151.102;2023-08-21T12:49:13;10.80;99.90
39453;DHT22;25154;-33.684;151.102;2023-08-21T12:54:15;10.80;99.90
39453;DHT22;25154;-33.684;151.102;2023-08-21T12:59:17;10.90;99.90
39453;DHT22;25154;-33.684;151.102;2023-08-21T13:04:19;10.80;99.90
39453;DHT22;25154;-33.684;151.102;2023-08-21T13:09:22;10.30;99.90
39453;DHT22;25154;-33.684;151.102;2023-08-21T13:14:26;10.60;99.90
39453;DHT22;25154;-33.684;151.102;2023-08-21T13:19:28;10.50;99.90
39453;DHT22;25154;-33.684;151.102;2023-08-21T13:24:31;10.30;99.90
39453;DHT22;25154;-33.684;151.102;2023-08-21T13:29:33;10.30;99.90
39453;DHT22;25154;-33.684;151.102;2023-08-21T13:34:35;10.10;99.90
39453;DHT22;25154;-33.684;151.102;2023-08-21T13:39:38;9.90;99.90
39453;DHT22;25154;-33.684;151.102;2023-08-21T13:44:40;9.90;99.90
39453;DHT22;25154;-33.684;151.102;2023-08-21T13:49:42;10.30;99.90
39453;DHT22;25154;-33.684;151.102;2023-08-21T13:54:44;10.00;99.90
39453;DHT22;25154;-33.684;151.102;2023-08-21T13:59:47;10.00;99.90
39453;DHT22;25154;-33.684;151.102;2023-08-21T14:04:49;10.10;99.90
39453;DHT22;25154;-33.684;151.102;2023-08-21T14:09:51;9.70;99.90
39453;DHT22;25154;-33.684;151.102;2023-08-21T14:14:54;9.80;99.90
39453;DHT22;25154;-33.684;151.102;2023-08-21T14:19:56;9.90;99.90
39453;DHT22;25154;-33.684;151.102;2023-08-21T14:24:58;9.80;99.90
39453;DHT22;25154;-33.684;151.102;2023-08-21T14:30:01;9.50;99.90
39453;DHT22;25154;-33.684;151.102;2023-08-21T14:35:03;9.70;99.90
39453;DHT22;25154;-33.684;151.102;2023-08-21T14:40:06;9.70;99.90
39453;DHT22;25154;-33.684;151.102;2023-08-21T14:45:09;9.70;99.90
39453;DHT22;25154;-33.684;151.102;2023-08-21T14:50:12;9.40;99.90
39453;DHT22;25154;-33.684;151.102;2023-08-21T14:55:14;9.40;99.90
39453;DHT22;25154;-33.684;151.102;2023-08-21T15:00:17;9.60;99.90
39453;DHT22;25154;-33.684;151.102;2023-08-21T15:05:20;9.50;99.90
39453;DHT22;25154;-33.684;151.102;2023-08-21T15:10:23;10.40;99.90
39453;DHT22;25154;-33.684;151.102;2023-08-21T15:15:25;9.10;99.90
39453;DHT22;25154;-33.684;151.102;2023-08-21T15:20:27;9.00;99.90
39453;DHT22;25154;-33.684;151.102;2023-08-21T15:25:30;9.10;99.90
39453;DHT22;25154;-33.684;151.102;2023-08-21T15:30:32;9.10;99.90
39453;DHT22;25154;-33.684;151.102;2023-08-21T15:35:35;9.00;99.90
39453;DHT22;25154;-33.684;151.102;2023-08-21T15:40:37;8.60;99.90
39453;DHT22;25154;-33.684;151.102;2023-08-21T15:45:39;8.80;99.90
39453;DHT22;25154;-33.684;151.102;2023-08-21T15:50:42;8.80;99.90
39453;DHT22;25154;-33.684;151.102;2023-08-21T15:55:44;8.70;99.90
39453;DHT22;25154;-33.684;151.102;2023-08-21T16:00:47;8.80;99.90
39453;DHT22;25154;-33.684;151.102;2023-08-21T16:05:49;8.70;99.90
39453;DHT22;25154;-33.684;151.102;2023-08-21T16:10:51;8.50;99.90
39453;DHT22;25154;-33.684;151.102;2023-08-21T16:15:54;8.60;99.90
39453;DHT22;25154;-33.684;151.102;2023-08-21T16:20:56;8.50;99.90
39453;DHT22;25154;-33.684;151.102;2023-08-21T16:25:58;8.40;99.90
39453;DHT22;25154;-33.684;151.102;2023-08-21T16:31:01;8.50;99.90
39453;DHT22;25154;-33.684;151.102;2023-08-21T16:36:04;8.60;99.90
39453;DHT22;25154;-33.684;151.102;2023-08-21T16:41:06;8.50;99.90
39453;DHT22;25154;-33.684;151.102;2023-08-21T16:46:09;8.60;99.90
39453;DHT22;25154;-33.684;151.102;2023-08-21T16:51:11;8.30;99.90
39453;DHT22;25154;-33.684;151.102;2023-08-21T16:56:14;8.30;99.90
39453;DHT22;25154;-33.684;151.102;2023-08-21T17:01:16;8.30;99.90
39453;DHT22;25154;-33.684;151.102;2023-08-21T17:06:18;8.10;99.90
39453;DHT22;25154;-33.684;151.102;2023-08-21T17:11:21;8.20;99.90
39453;DHT22;25154;-33.684;151.102;2023-08-21T17:16:23;8.10;99.90
39453;DHT22;25154;-33.684;151.102;2023-08-21T17:21:25;8.10;99.90
39453;DHT22;25154;-33.684;151.102;2023-08-21T17:26:28;8.30;99.90
39453;DHT22;25154;-33.684;151.102;2023-08-21T17:31:30;8.00;99.90
39453;DHT22;25154;-33.684;151.102;2023-08-21T17:36:33;8.10;99.90
39453;DHT22;25154;-33.684;151.102;2023-08-21T17:41:35;7.90;99.90
39453;DHT22;25154;-33.684;151.102;2023-08-21T17:46:37;8.40;99.90
39453;DHT22;25154;-33.684;151.102;2023-08-21T17:51:39;8.10;99.90
39453;DHT22;25154;-33.684;151.102;2023-08-21T17:56:42;7.70;99.90
39453;DHT22;25154;-33.684;151.102;2023-08-21T18:01:44;7.50;99.90
39453;DHT22;25154;-33.684;151.102;2023-08-21T18:06:46;7.90;99.90
39453;DHT22;25154;-33.684;151.102;2023-08-21T18:11:48;7.60;99.90
39453;DHT22;25154;-33.684;151.102;2023-08-21T18:16:59;7.40;99.90
39453;DHT22;25154;-33.684;151.102;2023-08-21T18:22:14;7.80;99.90
39453;DHT22;25154;-33.684;151.102;2023-08-21T18:27:16;7.70;99.90
39453;DHT22;25154;-33.684;151.102;2023-08-21T18:32:19;7.70;99.90
39453;DHT22;25154;-33.684;151.102;2023-08-21T18:37:22;7.80;99.90
39453;DHT22;25154;-33.684;151.102;2023-08-21T18:42:29;7.80;99.90
39453;DHT22;25154;-33.684;151.102;2023-08-21T18:47:32;7.80;99.90
39453;DHT22;25154;-33.684;151.102;2023-08-21T18:52:34;7.70;99.90
39453;DHT22;25154;-33.684;151.102;2023-08-21T18:57:36;7.50;99.90
39453;DHT22;25154;-33.684;151.102;2023-08-21T19:02:42;7.50;99.90
39453;DHT22;25154;-33.684;151.102;2023-08-21T19:07:44;7.10;99.90
39453;DHT22;25154;-33.684;151.102;2023-08-21T19:12:47;7.00;99.90
39453;DHT22;25154;-33.684;151.102;2023-08-21T19:17:49;7.40;99.90
39453;DHT22;25154;-33.684;151.102;2023-08-21T19:22:51;7.20;99.90
39453;DHT22;25154;-33.684;151.102;2023-08-21T19:27:54;7.00;99.90
39453;DHT22;25154;-33.684;151.102;2023-08-21T19:33:00;6.80;99.90
39453;DHT22;25154;-33.684;151.102;2023-08-21T19:38:02;6.80;99.90
39453;DHT22;25154;-33.684;151.102;2023-08-21T19:43:05;6.70;99.90
39453;DHT22;25154;-33.684;151.102;2023-08-21T19:48:08;6.70;99.90
39453;DHT22;25154;-33.684;151.102;2023-08-21T19:53:11;7.00;99.90
39453;DHT22;25154;-33.684;151.102;2023-08-21T19:58:13;6.90;99.90
39453;DHT22;25154;-33.684;151.102;2023-08-21T20:03:16;6.80;99.90
39453;DHT22;25154;-33.684;151.102;2023-08-21T20:08:21;6.80;99.90
39453;DHT22;25154;-33.684;151.102;2023-08-21T20:13:28;6.80;99.90
39453;DHT22;25154;-33.684;151.102;2023-08-21T20:18:31;6.60;99.90
39453;DHT22;25154;-33.684;151.102;2023-08-21T20:23:34;6.60;99.90
39453;DHT22;25154;-33.684;151.102;2023-08-21T20:28:37;6.70;99.90
39453;DHT22;25154;-33.684;151.102;2023-08-21T20:33:39;7.10;99.90
39453;DHT22;25154;-33.684;151.102;2023-08-21T20:38:42;7.10;99.90
39453;DHT22;25154;-33.684;151.102;2023-08-21T20:43:44;7.00;99.90
39453;DHT22;25154;-33.684;151.102;2023-08-21T20:48:46;7.00;99.90
39453;DHT22;25154;-33.684;151.102;2023-08-21T20:53:48;7.00;99.90
39453;DHT22;25154;-33.684;151.102;2023-08-21T20:58:51;6.90;99.90
39453;DHT22;25154;-33.684;151.102;2023-08-21T21:03:53;7.10;99.90
39453;DHT22;25154;-33.684;151.102;2023-08-21T21:08:55;7.30;99.90
39453;DHT22;25154;-33.684;151.102;2023-08-21T21:13:58;7.30;99.90
39453;DHT22;25154;-33.684;151.102;2023-08-21T21:19:00;7.40;99.90
39453;DHT22;25154;-33.684;151.102;2023-08-21T21:24:04;7.70;99.90
39453;DHT22;25154;-33.684;151.102;2023-08-21T21:29:08;7.90;99.90
39453;DHT22;25154;-33.684;151.102;2023-08-21T21:34:11;8.00;99.90
39453;DHT22;25154;-33.684;151.102;2023-08-21T21:39:14;8.30;99.90
39453;DHT22;25154;-33.684;151.102;2023-08-21T21:44:17;8.50;99.90
39453;DHT22;25154;-33.684;151.102;2023-08-21T21:49:19;8.90;99.90
39453;DHT22;25154;-33.684;151.102;2023-08-21T21:54:22;9.00;99.90
39453;DHT22;25154;-33.684;151.102;2023-08-21T21:59:25;9.30;99.90
39453;DHT22;25154;-33.684;151.102;2023-08-21T22:04:27;9.70;99.90
39453;DHT22;25154;-33.684;151.102;2023-08-21T22:09:31;10.10;99.90
39453;DHT22;25154;-33.684;151.102;2023-08-21T22:14:34;10.30;99.90
39453;DHT22;25154;-33.684;151.102;2023-08-21T22:19:37;10.60;99.90
39453;DHT22;25154;-33.684;151.102;2023-08-21T22:24:41;10.80;99.90
39453;DHT22;25154;-33.684;151.102;2023-08-21T22:29:44;10.80;99.90
39453;DHT22;25154;-33.684;151.102;2023-08-21T22:34:46;11.40;99.90
39453;DHT22;25154;-33.684;151.102;2023-08-21T22:39:49;12.40;99.90
39453;DHT22;25154;-33.684;151.102;2023-08-21T22:44:52;12.80;99.90
39453;DHT22;25154;-33.684;151.102;2023-08-21T22:49:55;13.30;99.90
39453;DHT22;25154;-33.684;151.102;2023-08-21T22:55:01;13.00;99.90
39453;DHT22;25154;-33.684;151.102;2023-08-21T23:00:05;12.60;99.90
39453;DHT22;25154;-33.684;151.102;2023-08-21T23:05:09;13.20;99.90
39453;DHT22;25154;-33.684;151.102;2023-08-21T23:10:11;13.80;99.90
39453;DHT22;25154;-33.684;151.102;2023-08-21T23:15:14;14.20;99.90
39453;DHT22;25154;-33.684;151.102;2023-08-21T23:20:16;14.70;99.90
39453;DHT22;25154;-33.684;151.102;2023-08-21T23:25:19;15.10;99.90
39453;DHT22;25154;-33.684;151.102;2023-08-21T23:30:21;15.30;99.90
39453;DHT22;25154;-33.684;151.102;2023-08-21T23:35:23;15.20;99.90
39453;DHT22;25154;-33.684;151.102;2023-08-21T23:40:26;15.40;99.90
39453;DHT22;25154;-33.684;151.102;2023-08-21T23:45:28;16.20;99.90
39453;DHT22;25154;-33.684;151.102;2023-08-21T23:50:32;16.90;99.90
39453;DHT22;25154;-33.684;151.102;2023-08-21T23:55:36;17.60;99.90
